Terminal Aerodrome Forecast
Issued by NWS

Home | Current Version | Previous Version | Text Only | Print | Product List | Glossary On
Versions: 1 2 3 4 5 6 7 8 9 10 11 12 13 14 15
000
FTAK31 PAJN 222300
TAFAJN
TAF
PAJN 222338Z 2300/2324 07007KT P6SM VCSH FEW010 BKN035 OVC070
     FM230200 09006KT P6SM BKN050 OVC100
     FM230700 00000KT P6SM BCFG FEW003 SCT050 SCT100
     FM231500 00000KT P6SM BKN100
     FM232100 VRB05KT P6SM OVC070=

USA.gov is the U.S. government's official web portal to all federal, state and local government web resources and services.